Shanghai Hongqiao International

Airport
ICAO code: 
ZSSS
Summary
ICAO Region: 
APAC
Territory: 
Location: 
Puxi, Shanghai,
Coordinates: 
Aerial View: 
31° 11' 38.026" N, 121° 20' 46.853" E
Metar
Observation
ZSSS 040700Z 02002MPS 330V130 CAVOK 15/M02 Q1027 NOSIG
Station
Shanghai / Hongqiao
Date/Time
2021-12-04 07:00:00
Wind direction
20°
Lowest cloud amount
clouds and visibility OK
Temperature
15°C
Dew point
-2°C
Humidity
30%
QNH
1027 hPa
Weather condition
n/a

Description

International airport serving the city of Shanghai.

Climatology

Humid “subtropical” climate (Köppen climate classification Cfa) - characterized by hot, humid summers and cool winters. Significant amounts of precipitation occur in all seasons in most areas. Winter rainfall (and sometimes snowfall) is associated with large storms that the westerlies steer from west to east. Most summer rainfall occurs during thunderstorms.

Runways

Designator Length Width Surface Rops
18/36 3400 58 ASP Yes/Yes
Airport map: 
Aerial View: 

SKYbrary Partners:

Safety knowledge contributed by: